sensor_id;sensor_type;location;lat;lon;timestamp;temperature;humidity
34201;DHT22;20469;55.638;37.670;2022-09-09T00:01:50;7.80;99.90
34201;DHT22;20469;55.638;37.670;2022-09-09T00:04:30;7.70;99.90
34201;DHT22;20469;55.638;37.670;2022-09-09T00:07:07;7.70;99.90
34201;DHT22;20469;55.638;37.670;2022-09-09T00:10:03;7.70;99.90
34201;DHT22;20469;55.638;37.670;2022-09-09T00:12:55;7.80;99.90
34201;DHT22;20469;55.638;37.670;2022-09-09T00:18:27;7.70;99.90
34201;DHT22;20469;55.638;37.670;2022-09-09T00:21:06;7.70;99.90
34201;DHT22;20469;55.638;37.670;2022-09-09T00:23:38;7.70;99.90
34201;DHT22;20469;55.638;37.670;2022-09-09T00:26:14;7.80;99.90
34201;DHT22;20469;55.638;37.670;2022-09-09T00:31:31;7.70;99.90
34201;DHT22;20469;55.638;37.670;2022-09-09T00:34:13;7.80;99.90
34201;DHT22;20469;55.638;37.670;2022-09-09T00:36:44;7.70;99.90
34201;DHT22;20469;55.638;37.670;2022-09-09T00:42:13;7.60;99.90
34201;DHT22;20469;55.638;37.670;2022-09-09T00:45:02;7.70;99.90
34201;DHT22;20469;55.638;37.670;2022-09-09T00:47:40;7.80;99.90
34201;DHT22;20469;55.638;37.670;2022-09-09T00:53:35;7.70;99.90
34201;DHT22;20469;55.638;37.670;2022-09-09T00:56:20;7.70;99.90
34201;DHT22;20469;55.638;37.670;2022-09-09T00:59:07;7.80;99.90
34201;DHT22;20469;55.638;37.670;2022-09-09T01:01:40;7.80;99.90
34201;DHT22;20469;55.638;37.670;2022-09-09T01:04:14;7.90;99.90
34201;DHT22;20469;55.638;37.670;2022-09-09T01:06:46;7.90;99.90
34201;DHT22;20469;55.638;37.670;2022-09-09T01:09:38;7.70;99.90
34201;DHT22;20469;55.638;37.670;2022-09-09T01:12:16;7.70;99.90
34201;DHT22;20469;55.638;37.670;2022-09-09T01:14:56;7.60;99.90
34201;DHT22;20469;55.638;37.670;2022-09-09T01:17:33;7.80;99.90
34201;DHT22;20469;55.638;37.670;2022-09-09T01:26:13;7.60;99.90
34201;DHT22;20469;55.638;37.670;2022-09-09T01:28:47;7.60;99.90
34201;DHT22;20469;55.638;37.670;2022-09-09T01:31:20;7.60;99.90
34201;DHT22;20469;55.638;37.670;2022-09-09T01:33:49;7.80;99.90
34201;DHT22;20469;55.638;37.670;2022-09-09T01:36:24;7.70;99.90
34201;DHT22;20469;55.638;37.670;2022-09-09T01:38:53;7.70;99.90
34201;DHT22;20469;55.638;37.670;2022-09-09T01:41:21;7.70;99.90
34201;DHT22;20469;55.638;37.670;2022-09-09T01:43:48;7.60;99.90
34201;DHT22;20469;55.638;37.670;2022-09-09T01:46:17;7.70;99.90
34201;DHT22;20469;55.638;37.670;2022-09-09T01:48:50;7.70;99.90
34201;DHT22;20469;55.638;37.670;2022-09-09T01:51:18;7.70;99.90
34201;DHT22;20469;55.638;37.670;2022-09-09T01:53:46;7.70;99.90
34201;DHT22;20469;55.638;37.670;2022-09-09T01:56:24;7.70;99.90
34201;DHT22;20469;55.638;37.670;2022-09-09T01:59:11;7.70;99.90
34201;DHT22;20469;55.638;37.670;2022-09-09T02:04:44;7.70;99.90
34201;DHT22;20469;55.638;37.670;2022-09-09T02:07:17;7.60;99.90
34201;DHT22;20469;55.638;37.670;2022-09-09T02:09:56;7.60;99.90
34201;DHT22;20469;55.638;37.670;2022-09-09T02:12:25;7.80;99.90
34201;DHT22;20469;55.638;37.670;2022-09-09T02:15:00;7.70;99.90
34201;DHT22;20469;55.638;37.670;2022-09-09T02:17:33;7.70;99.90
34201;DHT22;20469;55.638;37.670;2022-09-09T02:20:08;7.70;99.90
34201;DHT22;20469;55.638;37.670;2022-09-09T02:22:39;7.70;99.90
34201;DHT22;20469;55.638;37.670;2022-09-09T02:25:10;7.60;99.90
34201;DHT22;20469;55.638;37.670;2022-09-09T02:27:43;7.70;99.90
34201;DHT22;20469;55.638;37.670;2022-09-09T02:30:12;7.70;99.90
34201;DHT22;20469;55.638;37.670;2022-09-09T02:32:42;7.80;99.90
34201;DHT22;20469;55.638;37.670;2022-09-09T02:35:15;7.70;99.90
34201;DHT22;20469;55.638;37.670;2022-09-09T02:37:44;7.70;99.90
34201;DHT22;20469;55.638;37.670;2022-09-09T02:40:14;7.50;99.90
34201;DHT22;20469;55.638;37.670;2022-09-09T02:42:46;7.50;99.90
34201;DHT22;20469;55.638;37.670;2022-09-09T02:45:19;7.50;99.90
34201;DHT22;20469;55.638;37.670;2022-09-09T02:47:58;7.40;99.90
34201;DHT22;20469;55.638;37.670;2022-09-09T02:50:34;7.40;99.90
34201;DHT22;20469;55.638;37.670;2022-09-09T02:53:10;7.40;99.90
34201;DHT22;20469;55.638;37.670;2022-09-09T02:56:02;7.40;99.90
34201;DHT22;20469;55.638;37.670;2022-09-09T02:58:33;7.20;99.90
34201;DHT22;20469;55.638;37.670;2022-09-09T03:01:00;7.20;99.90
34201;DHT22;20469;55.638;37.670;2022-09-09T03:03:31;7.20;99.90
34201;DHT22;20469;55.638;37.670;2022-09-09T03:05:59;7.20;99.90
34201;DHT22;20469;55.638;37.670;2022-09-09T03:08:26;7.20;99.90
34201;DHT22;20469;55.638;37.670;2022-09-09T03:10:55;7.20;99.90
34201;DHT22;20469;55.638;37.670;2022-09-09T03:13:22;7.40;99.90
34201;DHT22;20469;55.638;37.670;2022-09-09T03:15:50;7.20;99.90
34201;DHT22;20469;55.638;37.670;2022-09-09T03:18:18;7.20;99.90
34201;DHT22;20469;55.638;37.670;2022-09-09T03:20:47;7.10;99.90
34201;DHT22;20469;55.638;37.670;2022-09-09T03:23:15;7.10;99.90
34201;DHT22;20469;55.638;37.670;2022-09-09T03:25:47;7.10;99.90
34201;DHT22;20469;55.638;37.670;2022-09-09T03:28:15;7.10;99.90
34201;DHT22;20469;55.638;37.670;2022-09-09T03:30:43;7.00;99.90
34201;DHT22;20469;55.638;37.670;2022-09-09T03:33:10;7.00;99.90
34201;DHT22;20469;55.638;37.670;2022-09-09T03:35:38;7.10;99.90
34201;DHT22;20469;55.638;37.670;2022-09-09T03:38:06;7.20;99.90
34201;DHT22;20469;55.638;37.670;2022-09-09T03:40:34;7.30;99.90
34201;DHT22;20469;55.638;37.670;2022-09-09T03:43:02;7.30;99.90
34201;DHT22;20469;55.638;37.670;2022-09-09T03:45:29;7.30;99.90
34201;DHT22;20469;55.638;37.670;2022-09-09T03:47:57;7.30;99.90
34201;DHT22;20469;55.638;37.670;2022-09-09T03:50:24;7.30;99.90
34201;DHT22;20469;55.638;37.670;2022-09-09T03:52:52;7.50;99.90
34201;DHT22;20469;55.638;37.670;2022-09-09T03:55:20;7.50;99.90
34201;DHT22;20469;55.638;37.670;2022-09-09T03:57:47;7.60;99.90
34201;DHT22;20469;55.638;37.670;2022-09-09T04:00:15;7.70;99.90
34201;DHT22;20469;55.638;37.670;2022-09-09T04:02:43;7.80;99.90
34201;DHT22;20469;55.638;37.670;2022-09-09T04:05:10;7.70;99.90
34201;DHT22;20469;55.638;37.670;2022-09-09T04:07:38;7.80;99.90
34201;DHT22;20469;55.638;37.670;2022-09-09T04:10:06;8.00;99.90
34201;DHT22;20469;55.638;37.670;2022-09-09T04:12:36;8.00;99.90
34201;DHT22;20469;55.638;37.670;2022-09-09T04:15:04;8.00;99.90
34201;DHT22;20469;55.638;37.670;2022-09-09T04:17:31;8.00;99.90
34201;DHT22;20469;55.638;37.670;2022-09-09T04:20:00;7.80;99.90
34201;DHT22;20469;55.638;37.670;2022-09-09T04:22:30;8.00;99.90
34201;DHT22;20469;55.638;37.670;2022-09-09T04:24:59;8.20;99.90
34201;DHT22;20469;55.638;37.670;2022-09-09T04:27:27;8.00;99.90
34201;DHT22;20469;55.638;37.670;2022-09-09T04:29:56;8.20;99.90
34201;DHT22;20469;55.638;37.670;2022-09-09T04:32:24;8.30;99.90
34201;DHT22;20469;55.638;37.670;2022-09-09T04:34:54;8.50;99.90
34201;DHT22;20469;55.638;37.670;2022-09-09T04:37:22;8.40;99.90
34201;DHT22;20469;55.638;37.670;2022-09-09T04:39:49;8.60;99.90
34201;DHT22;20469;55.638;37.670;2022-09-09T04:42:17;8.60;99.90
34201;DHT22;20469;55.638;37.670;2022-09-09T04:44:46;8.50;99.90
34201;DHT22;20469;55.638;37.670;2022-09-09T04:47:14;8.80;99.90
34201;DHT22;20469;55.638;37.670;2022-09-09T04:49:41;8.80;99.90
34201;DHT22;20469;55.638;37.670;2022-09-09T04:52:09;8.70;99.90
34201;DHT22;20469;55.638;37.670;2022-09-09T04:54:36;9.20;99.90
34201;DHT22;20469;55.638;37.670;2022-09-09T04:57:04;9.40;99.90
34201;DHT22;20469;55.638;37.670;2022-09-09T04:59:32;9.50;99.90
34201;DHT22;20469;55.638;37.670;2022-09-09T05:01:59;9.50;99.90
34201;DHT22;20469;55.638;37.670;2022-09-09T05:04:28;9.60;99.90
34201;DHT22;20469;55.638;37.670;2022-09-09T05:06:55;9.80;99.90
34201;DHT22;20469;55.638;37.670;2022-09-09T05:09:23;9.70;99.90
34201;DHT22;20469;55.638;37.670;2022-09-09T05:11:50;9.80;99.90
34201;DHT22;20469;55.638;37.670;2022-09-09T05:14:18;9.70;99.90
34201;DHT22;20469;55.638;37.670;2022-09-09T05:16:46;10.00;99.90
34201;DHT22;20469;55.638;37.670;2022-09-09T05:19:14;10.10;99.90
34201;DHT22;20469;55.638;37.670;2022-09-09T05:21:41;10.20;99.90
34201;DHT22;20469;55.638;37.670;2022-09-09T05:24:09;10.50;99.90
34201;DHT22;20469;55.638;37.670;2022-09-09T05:26:37;11.50;99.90
34201;DHT22;20469;55.638;37.670;2022-09-09T05:29:04;12.60;99.90
34201;DHT22;20469;55.638;37.670;2022-09-09T05:31:33;13.60;99.90
34201;DHT22;20469;55.638;37.670;2022-09-09T05:34:00;14.90;99.90
34201;DHT22;20469;55.638;37.670;2022-09-09T05:36:28;13.80;99.90
34201;DHT22;20469;55.638;37.670;2022-09-09T05:38:56;15.20;99.90
34201;DHT22;20469;55.638;37.670;2022-09-09T05:41:23;15.80;91.30
34201;DHT22;20469;55.638;37.670;2022-09-09T05:43:51;14.60;90.80
34201;DHT22;20469;55.638;37.670;2022-09-09T05:46:21;14.70;87.90
34201;DHT22;20469;55.638;37.670;2022-09-09T05:48:50;14.60;90.70
34201;DHT22;20469;55.638;37.670;2022-09-09T05:51:21;15.50;84.10
34201;DHT22;20469;55.638;37.670;2022-09-09T05:53:49;15.80;76.80
34201;DHT22;20469;55.638;37.670;2022-09-09T05:56:21;17.10;76.20
34201;DHT22;20469;55.638;37.670;2022-09-09T05:58:51;15.70;65.30
34201;DHT22;20469;55.638;37.670;2022-09-09T06:01:24;13.50;81.70
34201;DHT22;20469;55.638;37.670;2022-09-09T06:03:52;15.10;81.20
34201;DHT22;20469;55.638;37.670;2022-09-09T06:06:22;15.60;69.60
34201;DHT22;20469;55.638;37.670;2022-09-09T06:08:52;16.40;67.20
34201;DHT22;20469;55.638;37.670;2022-09-09T06:11:22;17.00;65.60
34201;DHT22;20469;55.638;37.670;2022-09-09T06:13:50;18.00;60.80
34201;DHT22;20469;55.638;37.670;2022-09-09T06:16:23;18.40;47.00
34201;DHT22;20469;55.638;37.670;2022-09-09T06:18:51;17.40;50.50
34201;DHT22;20469;55.638;37.670;2022-09-09T06:21:23;18.40;49.10
34201;DHT22;20469;55.638;37.670;2022-09-09T06:23:51;18.10;46.80
34201;DHT22;20469;55.638;37.670;2022-09-09T06:26:29;18.10;40.80
34201;DHT22;20469;55.638;37.670;2022-09-09T06:28:58;18.00;42.80
34201;DHT22;20469;55.638;37.670;2022-09-09T06:31:27;17.20;46.20
34201;DHT22;20469;55.638;37.670;2022-09-09T06:33:58;15.00;52.70
34201;DHT22;20469;55.638;37.670;2022-09-09T06:36:29;16.80;52.50
34201;DHT22;20469;55.638;37.670;2022-09-09T06:38:58;15.90;47.10
34201;DHT22;20469;55.638;37.670;2022-09-09T06:41:28;16.80;52.00
34201;DHT22;20469;55.638;37.670;2022-09-09T06:43:56;14.10;54.90
34201;DHT22;20469;55.638;37.670;2022-09-09T06:46:26;16.80;55.80
34201;DHT22;20469;55.638;37.670;2022-09-09T06:48:56;18.60;43.30
34201;DHT22;20469;55.638;37.670;2022-09-09T06:51:27;16.70;41.30
34201;DHT22;20469;55.638;37.670;2022-09-09T06:53:56;14.80;49.30
34201;DHT22;20469;55.638;37.670;2022-09-09T06:56:28;16.10;43.70
34201;DHT22;20469;55.638;37.670;2022-09-09T06:59:00;18.20;34.30
34201;DHT22;20469;55.638;37.670;2022-09-09T07:01:33;18.70;34.70
34201;DHT22;20469;55.638;37.670;2022-09-09T07:04:02;18.30;28.50
34201;DHT22;20469;55.638;37.670;2022-09-09T07:06:34;18.60;29.30
34201;DHT22;20469;55.638;37.670;2022-09-09T07:09:05;14.00;35.80
34201;DHT22;20469;55.638;37.670;2022-09-09T07:11:39;14.90;40.60
34201;DHT22;20469;55.638;37.670;2022-09-09T07:14:09;15.10;37.00
34201;DHT22;20469;55.638;37.670;2022-09-09T07:16:42;13.80;40.10
34201;DHT22;20469;55.638;37.670;2022-09-09T07:19:12;15.50;37.00
34201;DHT22;20469;55.638;37.670;2022-09-09T07:21:41;13.40;45.50
34201;DHT22;20469;55.638;37.670;2022-09-09T07:24:10;14.00;45.90
34201;DHT22;20469;55.638;37.670;2022-09-09T07:26:40;14.70;43.70
34201;DHT22;20469;55.638;37.670;2022-09-09T07:29:08;17.00;32.80
34201;DHT22;20469;55.638;37.670;2022-09-09T07:31:38;14.90;37.70
34201;DHT22;20469;55.638;37.670;2022-09-09T07:34:07;14.40;44.10
34201;DHT22;20469;55.638;37.670;2022-09-09T07:36:37;14.40;42.10
34201;DHT22;20469;55.638;37.670;2022-09-09T07:39:08;13.90;44.70
34201;DHT22;20469;55.638;37.670;2022-09-09T07:41:39;13.10;48.00
34201;DHT22;20469;55.638;37.670;2022-09-09T07:44:11;15.40;43.40
34201;DHT22;20469;55.638;37.670;2022-09-09T07:46:39;14.10;43.60
34201;DHT22;20469;55.638;37.670;2022-09-09T07:49:07;14.40;44.60
34201;DHT22;20469;55.638;37.670;2022-09-09T07:51:39;13.90;44.50
34201;DHT22;20469;55.638;37.670;2022-09-09T07:54:10;13.20;45.30
34201;DHT22;20469;55.638;37.670;2022-09-09T07:56:40;14.70;44.70
34201;DHT22;20469;55.638;37.670;2022-09-09T07:59:08;14.20;43.30
34201;DHT22;20469;55.638;37.670;2022-09-09T08:01:39;13.70;45.60
34201;DHT22;20469;55.638;37.670;2022-09-09T08:04:10;13.50;47.20
34201;DHT22;20469;55.638;37.670;2022-09-09T08:06:41;13.70;45.60
34201;DHT22;20469;55.638;37.670;2022-09-09T08:09:10;17.20;38.60
34201;DHT22;20469;55.638;37.670;2022-09-09T08:11:39;20.80;22.00
34201;DHT22;20469;55.638;37.670;2022-09-09T08:14:08;21.50;14.60
34201;DHT22;20469;55.638;37.670;2022-09-09T08:16:39;18.30;19.10
34201;DHT22;20469;55.638;37.670;2022-09-09T08:19:07;14.90;26.40
34201;DHT22;20469;55.638;37.670;2022-09-09T08:21:37;13.70;37.40
34201;DHT22;20469;55.638;37.670;2022-09-09T08:24:07;13.60;37.50
34201;DHT22;20469;55.638;37.670;2022-09-09T08:26:37;14.30;43.10
34201;DHT22;20469;55.638;37.670;2022-09-09T08:29:06;16.90;29.50
34201;DHT22;20469;55.638;37.670;2022-09-09T08:31:36;17.30;24.90
34201;DHT22;20469;55.638;37.670;2022-09-09T08:34:06;17.20;24.80
34201;DHT22;20469;55.638;37.670;2022-09-09T08:36:37;16.70;24.40
34201;DHT22;20469;55.638;37.670;2022-09-09T08:39:06;16.30;26.40
34201;DHT22;20469;55.638;37.670;2022-09-09T08:47:42;14.30;38.50
34201;DHT22;20469;55.638;37.670;2022-09-09T08:50:22;15.30;33.80
34201;DHT22;20469;55.638;37.670;2022-09-09T08:53:10;14.40;35.90
34201;DHT22;20469;55.638;37.670;2022-09-09T08:55:48;15.50;37.00
34201;DHT22;20469;55.638;37.670;2022-09-09T08:58:19;19.80;21.00
34201;DHT22;20469;55.638;37.670;2022-09-09T09:01:13;22.70;13.40
34201;DHT22;20469;55.638;37.670;2022-09-09T09:03:57;20.80;9.70
34201;DHT22;20469;55.638;37.670;2022-09-09T09:06:45;20.20;12.70
34201;DHT22;20469;55.638;37.670;2022-09-09T09:12:19;15.10;29.80
34201;DHT22;20469;55.638;37.670;2022-09-09T09:14:48;17.30;19.40
34201;DHT22;20469;55.638;37.670;2022-09-09T09:17:19;16.40;25.10
34201;DHT22;20469;55.638;37.670;2022-09-09T09:19:48;15.30;27.50
34201;DHT22;20469;55.638;37.670;2022-09-09T09:22:39;15.70;29.40
34201;DHT22;20469;55.638;37.670;2022-09-09T09:25:19;19.00;21.50
34201;DHT22;20469;55.638;37.670;2022-09-09T09:28:07;21.20;13.20
34201;DHT22;20469;55.638;37.670;2022-09-09T09:30:42;18.20;13.60
34201;DHT22;20469;55.638;37.670;2022-09-09T09:33:27;15.00;27.80
34201;DHT22;20469;55.638;37.670;2022-09-09T09:35:57;15.20;34.40
34201;DHT22;20469;55.638;37.670;2022-09-09T09:38:28;14.10;33.00
34201;DHT22;20469;55.638;37.670;2022-09-09T09:41:16;13.90;34.50
34201;DHT22;20469;55.638;37.670;2022-09-09T09:43:54;16.90;26.20
34201;DHT22;20469;55.638;37.670;2022-09-09T09:46:24;17.60;20.80
34201;DHT22;20469;55.638;37.670;2022-09-09T09:48:58;18.20;17.50
34201;DHT22;20469;55.638;37.670;2022-09-09T09:51:27;19.00;16.60
34201;DHT22;20469;55.638;37.670;2022-09-09T09:54:14;18.20;19.00
34201;DHT22;20469;55.638;37.670;2022-09-09T09:56:43;17.00;20.80
34201;DHT22;20469;55.638;37.670;2022-09-09T09:59:33;15.10;28.20
34201;DHT22;20469;55.638;37.670;2022-09-09T10:02:16;14.90;30.40
34201;DHT22;20469;55.638;37.670;2022-09-09T10:04:44;15.30;30.50
34201;DHT22;20469;55.638;37.670;2022-09-09T10:07:19;18.20;18.20
34201;DHT22;20469;55.638;37.670;2022-09-09T10:09:55;20.00;17.80
34201;DHT22;20469;55.638;37.670;2022-09-09T10:18:25;21.00;9.10
34201;DHT22;20469;55.638;37.670;2022-09-09T10:21:23;16.00;19.30
34201;DHT22;20469;55.638;37.670;2022-09-09T10:30:15;14.20;33.40
34201;DHT22;20469;55.638;37.670;2022-09-09T10:32:49;14.50;31.60
34201;DHT22;20469;55.638;37.670;2022-09-09T10:35:30;14.40;32.30
34201;DHT22;20469;55.638;37.670;2022-09-09T10:38:13;15.40;34.00
34201;DHT22;20469;55.638;37.670;2022-09-09T10:43:48;19.20;16.40
34201;DHT22;20469;55.638;37.670;2022-09-09T10:46:39;21.10;12.00
34201;DHT22;20469;55.638;37.670;2022-09-09T10:52:23;22.60;4.80
34201;DHT22;20469;55.638;37.670;2022-09-09T10:55:02;21.30;5.30
34201;DHT22;20469;55.638;37.670;2022-09-09T10:57:41;21.80;5.50
34201;DHT22;20469;55.638;37.670;2022-09-09T11:00:22;17.30;14.30
34201;DHT22;20469;55.638;37.670;2022-09-09T11:02:58;16.10;16.50
34201;DHT22;20469;55.638;37.670;2022-09-09T11:05:42;15.40;22.20
34201;DHT22;20469;55.638;37.670;2022-09-09T11:08:21;14.90;26.30
34201;DHT22;20469;55.638;37.670;2022-09-09T11:11:03;14.90;28.90
34201;DHT22;20469;55.638;37.670;2022-09-09T11:13:43;15.30;30.00
34201;DHT22;20469;55.638;37.670;2022-09-09T11:19:04;16.30;23.10
34201;DHT22;20469;55.638;37.670;2022-09-09T11:21:42;18.90;19.20
34201;DHT22;20469;55.638;37.670;2022-09-09T11:24:25;21.90;9.00
34201;DHT22;20469;55.638;37.670;2022-09-09T11:27:09;23.00;6.90
34201;DHT22;20469;55.638;37.670;2022-09-09T11:35:48;21.10;3.70
34201;DHT22;20469;55.638;37.670;2022-09-09T11:38:28;20.30;5.10
34201;DHT22;20469;55.638;37.670;2022-09-09T11:41:01;16.70;11.20
34201;DHT22;20469;55.638;37.670;2022-09-09T11:43:40;17.40;16.70
34201;DHT22;20469;55.638;37.670;2022-09-09T11:46:10;17.70;15.50
34201;DHT22;20469;55.638;37.670;2022-09-09T11:48:40;15.10;23.70
34201;DHT22;20469;55.638;37.670;2022-09-09T11:51:28;14.60;25.70
34201;DHT22;20469;55.638;37.670;2022-09-09T11:54:00;14.60;27.00
34201;DHT22;20469;55.638;37.670;2022-09-09T11:56:42;16.30;25.20
34201;DHT22;20469;55.638;37.670;2022-09-09T11:59:27;15.30;24.40
34201;DHT22;20469;55.638;37.670;2022-09-09T12:01:59;18.30;19.10
34201;DHT22;20469;55.638;37.670;2022-09-09T12:04:39;22.10;10.40
34201;DHT22;20469;55.638;37.670;2022-09-09T12:10:03;24.50;2.30
34201;DHT22;20469;55.638;37.670;2022-09-09T12:12:37;24.60;1.80
34201;DHT22;20469;55.638;37.670;2022-09-09T12:15:22;20.90;5.50
34201;DHT22;20469;55.638;37.670;2022-09-09T12:17:52;21.60;4.90
34201;DHT22;20469;55.638;37.670;2022-09-09T12:20:33;17.80;14.70
34201;DHT22;20469;55.638;37.670;2022-09-09T12:23:25;18.00;13.90
34201;DHT22;20469;55.638;37.670;2022-09-09T12:26:05;15.50;18.20
34201;DHT22;20469;55.638;37.670;2022-09-09T12:28:51;14.40;25.50
34201;DHT22;20469;55.638;37.670;2022-09-09T12:34:33;13.80;29.40
34201;DHT22;20469;55.638;37.670;2022-09-09T12:40:19;18.40;19.90
34201;DHT22;20469;55.638;37.670;2022-09-09T12:42:47;21.70;8.80
34201;DHT22;20469;55.638;37.670;2022-09-09T12:45:20;23.20;3.90
34201;DHT22;20469;55.638;37.670;2022-09-09T12:47:51;21.30;6.50
34201;DHT22;20469;55.638;37.670;2022-09-09T12:50:23;22.20;5.40
34201;DHT22;20469;55.638;37.670;2022-09-09T12:52:55;23.00;2.10
34201;DHT22;20469;55.638;37.670;2022-09-09T12:55:29;20.00;4.90
34201;DHT22;20469;55.638;37.670;2022-09-09T12:57:58;19.70;8.50
34201;DHT22;20469;55.638;37.670;2022-09-09T13:00:27;21.40;7.80
34201;DHT22;20469;55.638;37.670;2022-09-09T13:02:58;21.80;3.90
34201;DHT22;20469;55.638;37.670;2022-09-09T13:05:35;20.40;5.80
34201;DHT22;20469;55.638;37.670;2022-09-09T13:08:07;17.40;11.10
34201;DHT22;20469;55.638;37.670;2022-09-09T13:13:35;17.60;12.30
34201;DHT22;20469;55.638;37.670;2022-09-09T13:16:05;15.90;16.60
34201;DHT22;20469;55.638;37.670;2022-09-09T13:18:37;15.10;19.00
34201;DHT22;20469;55.638;37.670;2022-09-09T13:21:07;14.80;20.80
34201;DHT22;20469;55.638;37.670;2022-09-09T13:23:37;14.50;23.70
34201;DHT22;20469;55.638;37.670;2022-09-09T13:26:19;14.60;24.80
34201;DHT22;20469;55.638;37.670;2022-09-09T13:28:49;14.90;22.40
34201;DHT22;20469;55.638;37.670;2022-09-09T13:31:23;14.70;23.40
34201;DHT22;20469;55.638;37.670;2022-09-09T13:33:51;15.00;25.60
34201;DHT22;20469;55.638;37.670;2022-09-09T13:36:29;16.00;18.70
34201;DHT22;20469;55.638;37.670;2022-09-09T13:38:59;14.80;22.90
34201;DHT22;20469;55.638;37.670;2022-09-09T13:41:43;14.80;26.80
34201;DHT22;20469;55.638;37.670;2022-09-09T13:44:22;14.20;24.80
34201;DHT22;20469;55.638;37.670;2022-09-09T13:47:17;15.20;23.90
34201;DHT22;20469;55.638;37.670;2022-09-09T13:49:46;15.10;24.50
34201;DHT22;20469;55.638;37.670;2022-09-09T13:52:17;15.00;23.50
34201;DHT22;20469;55.638;37.670;2022-09-09T13:54:51;14.80;23.40
34201;DHT22;20469;55.638;37.670;2022-09-09T13:57:21;15.10;21.50
34201;DHT22;20469;55.638;37.670;2022-09-09T13:59:52;14.50;21.60
34201;DHT22;20469;55.638;37.670;2022-09-09T14:02:31;16.50;23.10
34201;DHT22;20469;55.638;37.670;2022-09-09T14:05:00;19.60;10.40
34201;DHT22;20469;55.638;37.670;2022-09-09T14:07:30;19.80;10.10
34201;DHT22;20469;55.638;37.670;2022-09-09T14:09:57;20.90;8.30
34201;DHT22;20469;55.638;37.670;2022-09-09T14:12:29;20.40;9.20
34201;DHT22;20469;55.638;37.670;2022-09-09T14:14:58;20.70;7.60
34201;DHT22;20469;55.638;37.670;2022-09-09T14:17:27;21.00;8.30
34201;DHT22;20469;55.638;37.670;2022-09-09T14:19:58;21.60;6.90
34201;DHT22;20469;55.638;37.670;2022-09-09T14:22:26;19.80;9.30
34201;DHT22;20469;55.638;37.670;2022-09-09T14:24:55;19.60;9.80
34201;DHT22;20469;55.638;37.670;2022-09-09T14:27:25;19.80;8.90
34201;DHT22;20469;55.638;37.670;2022-09-09T14:29:53;18.40;13.00
34201;DHT22;20469;55.638;37.670;2022-09-09T14:32:22;19.00;12.60
34201;DHT22;20469;55.638;37.670;2022-09-09T14:34:50;19.80;11.10
34201;DHT22;20469;55.638;37.670;2022-09-09T14:37:19;19.90;9.30
34201;DHT22;20469;55.638;37.670;2022-09-09T14:39:47;19.60;9.40
34201;DHT22;20469;55.638;37.670;2022-09-09T14:42:18;18.70;11.60
34201;DHT22;20469;55.638;37.670;2022-09-09T14:44:46;17.20;14.40
34201;DHT22;20469;55.638;37.670;2022-09-09T14:47:15;18.20;15.30
34201;DHT22;20469;55.638;37.670;2022-09-09T14:49:42;17.90;14.80
34201;DHT22;20469;55.638;37.670;2022-09-09T14:52:13;18.20;10.80
34201;DHT22;20469;55.638;37.670;2022-09-09T14:54:40;17.60;12.20
34201;DHT22;20469;55.638;37.670;2022-09-09T14:57:08;16.50;13.60
34201;DHT22;20469;55.638;37.670;2022-09-09T14:59:36;16.40;14.30
34201;DHT22;20469;55.638;37.670;2022-09-09T15:02:04;16.30;17.10
34201;DHT22;20469;55.638;37.670;2022-09-09T15:04:32;17.80;13.90
34201;DHT22;20469;55.638;37.670;2022-09-09T15:07:00;16.20;14.90
34201;DHT22;20469;55.638;37.670;2022-09-09T15:09:28;15.70;19.60
34201;DHT22;20469;55.638;37.670;2022-09-09T15:11:55;14.40;19.80
34201;DHT22;20469;55.638;37.670;2022-09-09T15:14:24;13.60;23.70
34201;DHT22;20469;55.638;37.670;2022-09-09T15:16:53;14.70;25.40
34201;DHT22;20469;55.638;37.670;2022-09-09T15:19:21;13.80;25.70
34201;DHT22;20469;55.638;37.670;2022-09-09T15:21:48;13.70;27.80
34201;DHT22;20469;55.638;37.670;2022-09-09T15:24:16;13.30;27.40
34201;DHT22;20469;55.638;37.670;2022-09-09T15:26:44;13.10;31.60
34201;DHT22;20469;55.638;37.670;2022-09-09T15:29:12;13.10;32.60
34201;DHT22;20469;55.638;37.670;2022-09-09T15:31:39;13.20;29.10
34201;DHT22;20469;55.638;37.670;2022-09-09T15:34:08;13.00;30.20
34201;DHT22;20469;55.638;37.670;2022-09-09T15:36:38;12.80;31.90
34201;DHT22;20469;55.638;37.670;2022-09-09T15:39:08;12.60;33.00
34201;DHT22;20469;55.638;37.670;2022-09-09T15:41:40;12.40;34.90
34201;DHT22;20469;55.638;37.670;2022-09-09T15:44:09;12.30;35.40
34201;DHT22;20469;55.638;37.670;2022-09-09T15:46:41;12.30;35.60
34201;DHT22;20469;55.638;37.670;2022-09-09T15:49:13;12.30;37.50
34201;DHT22;20469;55.638;37.670;2022-09-09T15:51:43;12.40;37.00
34201;DHT22;20469;55.638;37.670;2022-09-09T15:54:14;12.40;36.90
34201;DHT22;20469;55.638;37.670;2022-09-09T15:56:45;12.40;36.90
34201;DHT22;20469;55.638;37.670;2022-09-09T15:59:14;12.20;36.40
34201;DHT22;20469;55.638;37.670;2022-09-09T16:01:42;12.10;37.90
34201;DHT22;20469;55.638;37.670;2022-09-09T16:04:10;12.00;39.40
34201;DHT22;20469;55.638;37.670;2022-09-09T16:06:38;11.90;41.50
34201;DHT22;20469;55.638;37.670;2022-09-09T16:09:07;11.90;42.40
34201;DHT22;20469;55.638;37.670;2022-09-09T16:11:37;11.90;41.90
34201;DHT22;20469;55.638;37.670;2022-09-09T16:14:05;11.90;41.10
34201;DHT22;20469;55.638;37.670;2022-09-09T16:16:34;11.90;45.50
34201;DHT22;20469;55.638;37.670;2022-09-09T16:19:06;12.00;43.70
34201;DHT22;20469;55.638;37.670;2022-09-09T16:21:37;11.80;41.90
34201;DHT22;20469;55.638;37.670;2022-09-09T16:24:05;11.80;43.80
34201;DHT22;20469;55.638;37.670;2022-09-09T16:26:35;11.70;43.60
34201;DHT22;20469;55.638;37.670;2022-09-09T16:29:03;11.60;44.10
34201;DHT22;20469;55.638;37.670;2022-09-09T16:31:31;11.50;46.50
34201;DHT22;20469;55.638;37.670;2022-09-09T16:34:00;11.50;47.70
34201;DHT22;20469;55.638;37.670;2022-09-09T16:36:32;11.50;45.80
34201;DHT22;20469;55.638;37.670;2022-09-09T16:39:04;11.40;47.00
34201;DHT22;20469;55.638;37.670;2022-09-09T16:41:34;11.50;48.40
34201;DHT22;20469;55.638;37.670;2022-09-09T16:44:04;11.60;46.60
34201;DHT22;20469;55.638;37.670;2022-09-09T16:46:35;11.50;46.40
34201;DHT22;20469;55.638;37.670;2022-09-09T16:49:07;11.50;46.20
34201;DHT22;20469;55.638;37.670;2022-09-09T16:51:38;11.40;48.30
34201;DHT22;20469;55.638;37.670;2022-09-09T16:54:08;11.30;47.50
34201;DHT22;20469;55.638;37.670;2022-09-09T16:56:38;11.30;50.00
34201;DHT22;20469;55.638;37.670;2022-09-09T16:59:11;11.30;49.40
34201;DHT22;20469;55.638;37.670;2022-09-09T17:01:41;11.20;49.90
34201;DHT22;20469;55.638;37.670;2022-09-09T17:04:13;11.10;50.50